Time;durP1;ratioP1;P1;durP2;ratioP2;P2;SDS_P1;SDS_P2;PMS_P1;PMS_P2;Temp;Humidity;BMP_temperature;BMP_pressure;BME280_temperature;BME280_humidity;BME280_pressure;Samples;Min_cycle;Max_cycle;Signal;HPM_P1;HPM_P2
2022/04/30 00:02:09;;;;;;;0.10;0.10;;;;;;;10.35;58.41;103112.88;5043298;28;20024;-85
2022/04/30 00:04:36;;;;;;;0.28;0.28;;;;;;;10.35;57.96;103111.13;5040533;28;20037;-85
2022/04/30 00:07:03;;;;;;;0.10;0.10;;;;;;;10.31;58.33;103109.28;5051756;28;20107;-86
2022/04/30 00:09:30;;;;;;;0.47;0.47;;;;;;;10.28;59.04;103101.28;5049713;28;20083;-85
2022/04/30 00:11:58;;;;;;;0.00;0.00;;;;;;;10.29;58.53;103105.72;5055416;28;20032;-86
2022/04/30 00:14:25;;;;;;;0.10;0.10;;;;;;;10.25;58.57;103109.16;5062419;28;20025;-85
2022/04/30 00:16:52;;;;;;;0.22;0.22;;;;;;;10.26;58.10;103110.97;5064817;28;20142;-85
2022/04/30 00:19:20;;;;;;;0.10;0.10;;;;;;;10.23;59.01;103110.91;5063850;28;20064;-85
2022/04/30 00:21:47;;;;;;;0.10;0.10;;;;;;;10.25;58.89;103103.88;5057503;28;20093;-85
2022/04/30 00:24:13;;;;;;;0.10;0.10;;;;;;;10.29;58.74;103105.72;5058930;28;20037;-85
2022/04/30 00:26:39;;;;;;;0.10;0.10;;;;;;;10.30;58.81;103104.84;5066329;28;20037;-85
2022/04/30 00:29:05;;;;;;;0.05;0.05;;;;;;;10.26;59.08;103110.09;5067985;28;20051;-85
2022/04/30 00:31:32;;;;;;;0.10;0.10;;;;;;;10.28;58.75;103098.66;5069830;28;20032;-86
2022/04/30 00:33:58;;;;;;;0.10;0.10;;;;;;;10.31;58.45;103105.75;5059138;28;20029;-86
2022/04/30 00:36:24;;;;;;;0.00;0.00;;;;;;;10.35;58.44;103102.28;5050169;28;20489;-86
2022/04/30 00:38:50;;;;;;;0.05;0.05;;;;;;;10.34;58.82;103098.75;5046174;28;20596;-86
2022/04/30 00:41:17;;;;;;;0.10;0.10;;;;;;;10.33;59.00;103102.25;5036913;28;20120;-86
2022/04/30 00:43:45;;;;;;;0.80;0.75;;;;;;;10.34;58.73;103097.84;5039179;28;20025;-86
2022/04/30 00:46:13;;;;;;;0.10;0.10;;;;;;;10.32;58.97;103096.94;5044486;28;20017;-86
2022/04/30 00:48:41;;;;;;;0.10;0.10;;;;;;;10.28;58.65;103093.34;5047739;28;20746;-86
2022/04/30 00:51:10;;;;;;;0.10;0.10;;;;;;;10.26;58.96;103095.06;5048068;28;20041;-86
2022/04/30 00:53:44;;;;;;;0.52;0.28;;;;;;;10.29;58.92;103100.44;5042479;28;20067;-86
2022/04/30 00:56:13;;;;;;;0.10;0.10;;;;;;;10.30;59.53;103091.59;5042989;28;20028;-86
2022/04/30 00:58:42;;;;;;;0.10;0.10;;;;;;;10.36;58.96;103091.72;5044980;28;20030;-85
2022/04/30 01:01:09;;;;;;;0.10;0.10;;;;;;;10.43;58.88;103090.09;5043526;28;20029;-85
2022/04/30 01:03:36;;;;;;;0.10;0.10;;;;;;;10.48;59.13;103084.84;5044333;28;20045;-85
2022/04/30 01:06:04;;;;;;;0.08;0.08;;;;;;;10.52;59.06;103086.69;5051531;28;20071;-85
2022/04/30 01:08:31;;;;;;;0.10;0.10;;;;;;;10.56;58.89;103087.66;5052733;28;20044;-85
2022/04/30 01:11:01;;;;;;;0.08;0.08;;;;;;;10.61;58.99;103091.25;5052449;28;20044;-85
2022/04/30 01:13:28;;;;;;;0.00;0.00;;;;;;;10.60;58.40;103085.03;5052850;28;20123;-85
2022/04/30 01:15:58;;;;;;;0.10;0.10;;;;;;;10.58;58.37;103091.19;5052578;28;20024;-85
2022/04/30 01:18:25;;;;;;;0.10;0.10;;;;;;;10.54;58.69;103086.72;5059281;28;20036;-85
2022/04/30 01:20:55;;;;;;;0.15;0.15;;;;;;;10.52;58.10;103084.06;5068413;28;20044;-85
2022/04/30 01:23:22;;;;;;;0.10;0.10;;;;;;;10.47;58.42;103081.31;5060062;28;20033;-85
2022/04/30 01:25:50;;;;;;;0.10;0.10;;;;;;;10.44;58.36;103073.34;5059883;28;20048;-85
2022/04/30 01:28:19;;;;;;;0.10;0.10;;;;;;;10.42;58.43;103076.78;5059296;28;20412;-85
2022/04/30 01:30:46;;;;;;;0.10;0.10;;;;;;;10.40;58.62;103070.59;5057750;28;20645;-85
2022/04/30 01:37:22;;;;;;;0.10;0.10;;;;;;;10.36;58.71;103067.88;5046111;28;20049;-85
2022/04/30 01:38:44;;;;;;;0.10;0.10;;;;;;;10.33;58.98;103070.47;5040727;28;20131;-85
2022/04/30 01:41:11;;;;;;;0.15;0.15;;;;;;;10.32;58.37;103066.03;5039119;28;20040;-85
2022/04/30 01:43:37;;;;;;;0.00;0.00;;;;;;;10.34;58.71;103069.59;5040639;28;20087;-85
2022/04/30 01:46:04;;;;;;;0.10;0.10;;;;;;;10.36;58.44;103057.28;5045704;28;20065;-85
2022/04/30 01:48:32;;;;;;;0.10;0.10;;;;;;;10.34;58.86;103059.00;5048495;28;20500;-84
2022/04/30 01:50:58;;;;;;;0.10;0.10;;;;;;;10.41;58.15;103061.78;5048733;28;20053;-85
2022/04/30 01:53:24;;;;;;;0.10;0.10;;;;;;;10.34;58.79;103056.34;5034499;28;20507;-85
2022/04/30 01:55:51;;;;;;;0.57;0.47;;;;;;;10.36;58.70;103054.63;5043249;28;20100;-85
2022/04/30 01:58:18;;;;;;;0.10;0.10;;;;;;;10.32;58.55;103051.91;5045265;28;20405;-85
2022/04/30 02:00:45;;;;;;;0.20;0.20;;;;;;;10.27;58.88;103049.16;5047304;28;20035;-85
2022/04/30 02:03:13;;;;;;;0.00;0.00;;;;;;;10.23;58.90;103054.38;5045159;28;20082;-85
2022/04/30 02:05:41;;;;;;;0.10;0.10;;;;;;;10.22;58.69;103050.84;5046895;28;20043;-85
2022/04/30 02:08:11;;;;;;;0.65;0.65;;;;;;;10.15;59.12;103048.94;5038871;28;20033;-84
2022/04/30 02:10:39;;;;;;;0.00;0.00;;;;;;;10.14;58.85;103047.16;5039781;28;20373;-85
2022/04/30 02:13:06;;;;;;;0.10;0.10;;;;;;;10.05;59.28;103039.94;5056196;28;20021;-85
2022/04/30 02:15:34;;;;;;;0.20;0.20;;;;;;;10.05;58.85;103039.94;5052534;28;20048;-85
2022/04/30 02:18:03;;;;;;;0.08;0.08;;;;;;;10.00;59.35;103034.56;5053348;28;20091;-86
2022/04/30 02:20:34;;;;;;;0.08;0.08;;;;;;;9.94;59.97;103039.75;5053875;28;20063;-85
2022/04/30 02:23:03;;;;;;;0.03;0.03;;;;;;;9.94;59.26;103039.75;5050664;28;20025;-85
2022/04/30 02:25:30;;;;;;;0.10;0.10;;;;;;;9.84;60.38;103037.81;5046185;28;20025;-85
2022/04/30 02:27:58;;;;;;;0.00;0.00;;;;;;;9.87;59.95;103040.53;5051405;28;20033;-84
2022/04/30 02:30:27;;;;;;;0.17;0.17;;;;;;;9.84;60.55;103033.41;5046354;28;20036;-85
2022/04/30 02:32:57;;;;;;;0.13;0.13;;;;;;;9.91;60.61;103033.53;5048137;28;20063;-85
2022/04/30 02:35:28;;;;;;;0.10;0.10;;;;;;;9.98;60.33;103041.59;5040272;28;20021;-84
2022/04/30 02:37:56;;;;;;;0.30;0.30;;;;;;;9.98;60.56;103035.41;5037265;28;20029;-85
2022/04/30 02:40:24;;;;;;;0.10;0.10;;;;;;;10.06;60.11;103035.56;5043526;28;20040;-84
2022/04/30 02:42:52;;;;;;;0.38;0.35;;;;;;;10.09;59.76;103035.59;5048398;28;20021;-85
2022/04/30 02:45:19;;;;;;;0.10;0.10;;;;;;;10.12;60.00;103033.91;5048952;28;20021;-85
2022/04/30 02:47:52;;;;;;;0.00;0.00;;;;;;;10.17;59.71;103026.91;5054981;28;20037;-85
2022/04/30 02:50:20;;;;;;;0.22;0.22;;;;;;;10.20;59.90;103031.38;5055357;28;20076;-85
2022/04/30 02:52:46;;;;;;;0.00;0.00;;;;;;;10.16;59.86;103025.13;5055169;28;20033;-85
2022/04/30 02:55:13;;;;;;;0.10;0.10;;;;;;;10.25;59.38;103018.22;5054372;28;20120;-85
2022/04/30 03:00:44;;;;;;;0.10;0.10;;;;;;;10.28;59.64;103015.59;5042979;28;20493;-85
2022/04/30 03:03:12;;;;;;;0.10;0.10;;;;;;;10.38;59.17;103021.97;5035584;28;20124;-85
2022/04/30 03:05:40;;;;;;;0.40;0.40;;;;;;;10.41;59.40;103008.78;5035280;28;20079;-85
2022/04/30 03:08:12;;;;;;;0.10;0.10;;;;;;;10.45;59.51;103002.66;5035178;28;20045;-85
2022/04/30 03:10:42;;;;;;;0.00;0.00;;;;;;;10.49;59.15;103012.44;5035481;28;20091;-85
2022/04/30 03:13:09;;;;;;;0.10;0.10;;;;;;;10.44;59.39;103008.81;5044719;28;20037;-85
2022/04/30 03:15:38;;;;;;;0.52;0.52;;;;;;;10.48;59.02;103006.25;5046025;28;20033;-85
2022/04/30 03:23:38;;;;;;;0.10;0.10;;;;;;;10.58;58.78;103003.72;5036846;28;20072;-85
2022/04/30 03:26:08;;;;;;;0.10;0.10;;;;;;;10.58;58.78;103003.72;5045106;28;20093;-85
2022/04/30 03:28:37;;;;;;;0.10;0.10;;;;;;;10.59;58.71;102998.47;5045673;28;20519;-86
2022/04/30 03:31:04;;;;;;;0.10;0.10;;;;;;;10.63;58.53;102987.03;5035292;28;20381;-85
2022/04/30 03:33:31;;;;;;;0.10;0.10;;;;;;;10.61;58.45;102986.09;5035880;28;20029;-85
2022/04/30 03:35:58;;;;;;;0.40;0.40;;;;;;;10.57;58.15;102976.34;5036186;28;20083;-85
2022/04/30 03:38:24;;;;;;;0.03;0.03;;;;;;;10.55;58.33;102975.41;5040675;28;20091;-85
2022/04/30 03:40:50;;;;;;;0.10;0.10;;;;;;;10.54;58.16;102984.22;5042775;28;20026;-86
2022/04/30 03:43:18;;;;;;;0.10;0.10;;;;;;;10.55;57.97;102986.00;5045772;28;20040;-85
2022/04/30 03:45:45;;;;;;;0.20;0.20;;;;;;;10.56;58.11;102985.16;5053332;28;20025;-85
2022/04/30 03:48:12;;;;;;;0.00;0.00;;;;;;;10.56;58.12;102981.63;5046145;28;20083;-86
2022/04/30 03:50:39;;;;;;;0.00;0.00;;;;;;;10.57;58.10;102978.97;5052424;28;20017;-85
2022/04/30 03:53:05;;;;;;;0.05;0.05;;;;;;;10.61;58.17;102982.56;5042396;28;20021;-85
2022/04/30 03:55:32;;;;;;;0.10;0.10;;;;;;;10.62;58.21;102977.28;5038004;28;20037;-85
2022/04/30 03:57:58;;;;;;;0.10;0.10;;;;;;;10.65;58.06;102971.13;5052788;28;20116;-85
2022/04/30 04:00:24;;;;;;;0.00;0.00;;;;;;;10.70;57.98;102979.16;5054497;28;20032;-85
2022/04/30 04:02:51;;;;;;;0.10;0.10;;;;;;;10.68;57.77;102972.06;5054200;28;20056;-85
2022/04/30 04:05:17;;;;;;;0.10;0.10;;;;;;;10.69;57.66;102965.00;5056587;28;20029;-85
2022/04/30 04:07:44;;;;;;;0.28;0.28;;;;;;;10.60;58.11;102968.41;5054932;28;20115;-86
2022/04/30 04:10:12;;;;;;;0.10;0.10;;;;;;;10.65;58.00;102971.13;5054863;28;20033;-86
2022/04/30 04:12:39;;;;;;;0.10;0.10;;;;;;;10.58;58.11;102967.53;5056023;28;20039;-85
2022/04/30 04:17:54;;;;;;;0.50;0.43;;;;;;;10.58;58.13;102980.78;5040484;28;20049;-86
2022/04/30 04:20:27;;;;;;;0.03;0.03;;;;;;;10.64;58.31;102978.22;5038810;28;20079;-86
2022/04/30 04:22:55;;;;;;;0.10;0.10;;;;;;;10.56;58.47;102982.50;5036996;28;20401;-86
2022/04/30 04:28:08;;;;;;;0.10;0.10;;;;;;;10.79;58.39;102987.22;5046303;28;20132;-85
2022/04/30 04:30:35;;;;;;;2.58;1.00;;;;;;;10.83;58.00;102987.28;5051090;28;20037;-86
2022/04/30 04:33:02;;;;;;;0.10;0.10;;;;;;;10.90;57.83;102992.69;5039470;28;20100;-85
2022/04/30 04:35:29;;;;;;;0.10;0.10;;;;;;;10.93;57.65;102995.34;5044988;28;20527;-85
2022/04/30 04:37:56;;;;;;;0.00;0.00;;;;;;;11.02;57.39;102982.22;5047935;28;20034;-85
2022/04/30 04:40:22;;;;;;;0.10;0.10;;;;;;;11.03;57.56;102988.41;5062200;28;20025;-85
2022/04/30 04:42:48;;;;;;;0.10;0.10;;;;;;;11.11;57.16;102987.63;5055132;28;20037;-86
2022/04/30 04:45:14;;;;;;;0.20;0.20;;;;;;;11.14;56.83;102981.47;5058595;28;20033;-85
2022/04/30 04:47:44;;;;;;;0.30;0.30;;;;;;;11.19;56.97;102995.72;5057659;28;20029;-85
2022/04/30 04:50:12;;;;;;;0.10;0.10;;;;;;;11.25;57.17;102998.44;5057871;28;20029;-86
2022/04/30 04:52:40;;;;;;;0.10;0.10;;;;;;;11.20;56.97;102994.81;5046560;28;20040;-86
2022/04/30 04:55:06;;;;;;;0.03;0.03;;;;;;;11.19;56.91;103001.03;5045835;28;20029;-85
2022/04/30 04:57:32;;;;;;;0.10;0.10;;;;;;;11.25;56.77;103001.09;5036443;28;20033;-85
2022/04/30 04:59:59;;;;;;;0.15;0.15;;;;;;;11.30;56.75;103004.69;5032975;28;20029;-85
2022/04/30 05:02:25;;;;;;;0.10;0.10;;;;;;;11.33;56.82;103004.72;5032531;28;20026;-85
2022/04/30 05:04:51;;;;;;;0.50;0.50;;;;;;;11.33;56.79;103002.06;5034876;28;20428;-85
2022/04/30 05:07:17;;;;;;;0.03;0.03;;;;;;;11.30;56.69;103010.00;5039235;28;20034;-85
2022/04/30 05:09:43;;;;;;;0.00;0.00;;;;;;;11.32;56.04;103008.22;5042805;28;20036;-85
2022/04/30 05:12:11;;;;;;;0.00;0.00;;;;;;;11.31;55.64;103013.53;5087188;22;20044;-78
2022/04/30 05:14:37;;;;;;;0.47;0.25;;;;;;;11.47;55.97;103011.94;5083703;28;20029;-77
2022/04/30 05:17:04;;;;;;;0.00;0.00;;;;;;;11.48;55.51;103019.91;5091448;28;20103;-77
2022/04/30 05:19:32;;;;;;;0.10;0.10;;;;;;;11.47;55.34;103014.59;5091464;28;20032;-77
2022/04/30 05:21:58;;;;;;;0.10;0.10;;;;;;;11.43;54.73;103020.75;5090680;28;20054;-77
2022/04/30 05:24:24;;;;;;;0.00;0.00;;;;;;;11.50;55.08;103011.97;5088754;28;20040;-77
2022/04/30 05:26:50;;;;;;;0.10;0.10;;;;;;;11.60;55.30;103018.25;5090877;28;20071;-77
2022/04/30 05:29:17;;;;;;;0.10;0.10;;;;;;;11.63;55.01;103019.19;5093994;28;20105;-77
2022/04/30 05:31:43;;;;;;;0.45;0.45;;;;;;;11.69;54.96;103009.50;5091769;28;20039;-78
2022/04/30 05:34:10;;;;;;;0.00;0.00;;;;;;;11.68;54.31;103015.72;5095087;28;20107;-78
2022/04/30 05:36:37;;;;;;;0.10;0.10;;;;;;;11.75;54.20;103020.19;5095574;28;20119;-77
2022/04/30 05:39:04;;;;;;;0.38;0.38;;;;;;;11.80;54.51;103022.03;5095524;28;20509;-77
2022/04/30 05:41:30;;;;;;;0.00;0.00;;;;;;;11.80;53.86;103015.81;5094554;28;20525;-75
2022/04/30 05:43:56;;;;;;;0.10;0.10;;;;;;;11.86;53.79;103018.53;5094954;28;20032;-76
2022/04/30 05:46:22;;;;;;;0.00;0.00;;;;;;;11.92;54.29;103013.28;5093641;28;20513;-76
2022/04/30 05:48:49;;;;;;;0.00;0.00;;;;;;;12.01;53.81;103009.84;5091540;28;20040;-77
2022/04/30 05:51:15;;;;;;;0.00;0.00;;;;;;;12.06;54.16;103007.22;5089014;28;20062;-78
2022/04/30 05:53:41;;;;;;;0.00;0.00;;;;;;;12.01;53.78;103009.84;5093590;28;20024;-77
2022/04/30 05:56:08;;;;;;;0.00;0.00;;;;;;;12.11;53.53;103002.84;5085707;28;20056;-78
2022/04/30 05:58:34;;;;;;;0.10;0.10;;;;;;;12.13;53.44;103003.75;5093391;28;20032;-78
2022/04/30 06:01:01;;;;;;;2.40;0.82;;;;;;;12.20;53.94;103002.94;5094522;28;20145;-77
2022/04/30 06:03:31;;;;;;;0.00;0.00;;;;;;;12.28;53.69;103001.19;5094006;28;20435;-77
2022/04/30 06:05:57;;;;;;;0.00;0.00;;;;;;;12.32;53.51;102998.59;5093723;28;20103;-77
2022/04/30 06:08:23;;;;;;;0.00;0.00;;;;;;;12.39;53.22;102995.97;5078180;28;20071;-77
2022/04/30 06:10:49;;;;;;;0.32;0.32;;;;;;;12.40;53.49;103003.06;5091166;28;20024;-76
2022/04/30 06:13:15;;;;;;;0.00;0.00;;;;;;;12.48;53.05;103011.09;5092984;28;20431;-77
2022/04/30 06:15:42;;;;;;;0.10;0.10;;;;;;;12.47;53.20;103011.97;5093480;28;20107;-77
2022/04/30 06:18:11;;;;;;;0.10;0.10;;;;;;;12.54;53.16;103011.13;5086073;28;20032;-77
2022/04/30 06:20:37;;;;;;;0.10;0.10;;;;;;;12.52;53.49;103012.00;5090500;28;20028;-75
2022/04/30 06:23:03;;;;;;;0.10;0.10;;;;;;;12.51;53.19;103021.78;5093051;28;20502;-76
2022/04/30 06:25:29;;;;;;;0.10;0.10;;;;;;;12.54;53.25;103015.59;5093212;28;20028;-77
2022/04/30 06:27:55;;;;;;;0.00;0.00;;;;;;;12.54;53.57;103016.47;5093379;28;20021;-77
2022/04/30 06:30:22;;;;;;;0.00;0.00;;;;;;;12.58;53.67;103020.91;5090838;28;20513;-77
2022/04/30 06:32:48;;;;;;;0.13;0.13;;;;;;;12.58;53.68;103022.69;5089163;28;20036;-77
2022/04/30 06:35:14;;;;;;;0.10;0.10;;;;;;;12.64;53.67;103016.53;5086552;28;20501;-76
2022/04/30 06:37:40;;;;;;;4.38;0.80;;;;;;;12.70;53.72;103021.91;5091891;28;20028;-76
2022/04/30 06:40:07;;;;;;;0.00;0.00;;;;;;;12.74;53.08;103003.28;5092723;28;20031;-77
2022/04/30 06:42:41;;;;;;;0.30;0.30;;;;;;;12.89;53.42;103007.78;5091975;28;20028;-77
2022/04/30 06:45:10;;;;;;;0.00;0.00;;;;;;;12.94;52.94;103003.38;5090544;28;20389;-75
2022/04/30 06:47:36;;;;;;;0.00;0.00;;;;;;;13.05;52.77;103010.53;5090128;28;20117;-76
2022/04/30 06:50:03;;;;;;;0.52;0.52;;;;;;;13.14;53.35;103010.56;5092488;28;20036;-75
2022/04/30 06:52:30;;;;;;;0.08;0.08;;;;;;;13.22;52.76;103008.84;5092213;28;20263;-83
2022/04/30 06:57:45;;;;;;;0.10;0.10;;;;;;;13.37;52.18;103015.06;5091957;28;20039;-77
2022/04/30 07:02:59;;;;;;;0.00;0.00;;;;;;;13.43;52.01;103009.81;5080287;28;20040;-77
2022/04/30 07:05:27;;;;;;;0.00;0.00;;;;;;;13.40;51.37;103012.47;5083051;28;20035;-76
2022/04/30 07:07:53;;;;;;;0.30;0.30;;;;;;;13.44;51.94;103006.25;5092619;28;20023;-77
2022/04/30 07:10:19;;;;;;;2.38;0.88;;;;;;;13.48;51.64;103002.72;5092619;28;20516;-77
2022/04/30 07:12:45;;;;;;;0.10;0.10;;;;;;;13.48;51.72;103010.69;5090808;28;20505;-77
2022/04/30 07:15:11;;;;;;;0.00;0.00;;;;;;;13.43;51.55;103012.47;5092505;28;20487;-76
2022/04/30 07:17:40;;;;;;;0.00;0.00;;;;;;;13.40;51.28;103005.38;5086392;28;20035;-76
2022/04/30 07:20:09;;;;;;;0.00;0.00;;;;;;;13.45;51.53;103005.38;5091246;28;20028;-76
2022/04/30 07:22:35;;;;;;;0.10;0.10;;;;;;;13.56;51.97;103008.97;5091170;28;20031;-77
2022/04/30 07:25:05;;;;;;;0.85;0.85;;;;;;;13.66;51.41;103006.31;5093055;28;20063;-77
2022/04/30 07:27:31;;;;;;;0.08;0.08;;;;;;;13.74;50.58;103012.53;5092221;28;20096;-77
2022/04/30 07:29:57;;;;;;;0.00;0.00;;;;;;;13.85;51.15;103008.09;5092421;28;20039;-77
2022/04/30 07:32:23;;;;;;;0.13;0.13;;;;;;;13.95;50.99;103008.13;5081391;28;20043;-76
2022/04/30 07:34:49;;;;;;;0.32;0.32;;;;;;;14.02;50.85;103007.25;5092384;28;20028;-77
2022/04/30 07:37:16;;;;;;;0.00;0.00;;;;;;;14.04;50.10;103008.13;5091965;28;20020;-76
2022/04/30 07:39:42;;;;;;;0.38;0.38;;;;;;;13.96;49.39;103015.25;5092252;28;20030;-77
2022/04/30 07:42:10;;;;;;;0.00;0.00;;;;;;;14.05;50.04;103008.13;5091521;28;20044;-76
2022/04/30 07:44:36;;;;;;;0.30;0.30;;;;;;;14.05;50.01;102999.25;5088960;28;20032;-77
2022/04/30 07:47:02;;;;;;;1.55;1.38;;;;;;;14.07;49.95;102987.69;5084372;28;20031;-77
2022/04/30 07:49:28;;;;;;;0.00;0.00;;;;;;;14.05;50.09;102985.91;5091741;28;20035;-77
2022/04/30 07:51:56;;;;;;;0.00;0.00;;;;;;;14.03;49.31;102985.00;5088384;28;20036;-77
2022/04/30 07:54:23;;;;;;;0.00;0.00;;;;;;;13.94;49.22;102985.03;5091082;28;20050;-78
2022/04/30 07:56:53;;;;;;;0.00;0.00;;;;;;;13.98;49.76;102990.38;5089306;28;20032;-77
2022/04/30 07:59:20;;;;;;;0.05;0.05;;;;;;;13.95;49.63;102986.81;5088052;28;20020;-77
2022/04/30 08:01:47;;;;;;;0.00;0.00;;;;;;;13.90;49.46;102987.69;5090991;28;20063;-77
2022/04/30 08:04:13;;;;;;;0.00;0.00;;;;;;;13.89;49.46;102985.94;5091646;28;20101;-75
2022/04/30 08:06:39;;;;;;;0.00;0.00;;;;;;;13.85;48.48;102994.78;5090047;28;20467;-77
2022/04/30 08:09:05;;;;;;;0.10;0.10;;;;;;;14.00;49.11;102987.69;5090255;28;20031;-77
2022/04/30 08:11:32;;;;;;;0.00;0.00;;;;;;;14.09;48.14;102982.34;5090801;28;20074;-77
2022/04/30 08:13:58;;;;;;;0.03;0.03;;;;;;;14.17;47.69;102988.56;5091950;28;20397;-77
2022/04/30 08:16:24;;;;;;;0.00;0.00;;;;;;;14.32;46.66;102978.78;5089842;28;20032;-78
2022/04/30 08:18:51;;;;;;;0.00;0.00;;;;;;;14.47;46.49;102984.09;5090247;28;20036;-77
2022/04/30 08:21:17;;;;;;;0.30;0.30;;;;;;;14.72;46.00;102976.06;5090958;28;20088;-77
2022/04/30 08:23:43;;;;;;;0.40;0.40;;;;;;;14.93;44.97;102980.44;5091910;28;20020;-75
2022/04/30 08:26:09;;;;;;;0.00;0.00;;;;;;;15.09;45.29;102981.25;5091723;28;20080;-77
2022/04/30 08:28:35;;;;;;;0.00;0.00;;;;;;;15.02;43.06;102975.03;5091704;28;20036;-78
2022/04/30 08:31:01;;;;;;;0.13;0.13;;;;;;;14.93;43.04;102974.19;5089480;28;20316;-77
2022/04/30 08:33:28;;;;;;;0.00;0.00;;;;;;;14.74;43.37;102974.25;5089605;28;20436;-77
2022/04/30 08:35:56;;;;;;;0.03;0.03;;;;;;;14.85;44.75;102969.78;5090300;28;20024;-76
2022/04/30 08:38:22;;;;;;;0.00;0.00;;;;;;;14.91;43.64;102968.00;5091548;28;20034;-78
2022/04/30 08:40:48;;;;;;;0.10;0.10;;;;;;;14.95;42.63;102967.94;5090596;28;20039;-77
2022/04/30 08:43:16;;;;;;;0.20;0.20;;;;;;;15.10;42.77;102971.44;5091323;28;20028;-76
2022/04/30 08:45:47;;;;;;;0.10;0.10;;;;;;;15.05;43.77;102968.78;5091087;28;20495;-77
2022/04/30 08:48:15;;;;;;;0.00;0.00;;;;;;;15.10;43.58;102964.31;5081379;28;20051;-76
2022/04/30 08:50:44;;;;;;;0.08;0.08;;;;;;;15.03;42.81;102966.16;5088922;28;20032;-75
2022/04/30 08:53:10;;;;;;;0.00;0.00;;;;;;;15.01;43.48;102961.72;5091447;28;20028;-78
2022/04/30 08:55:37;;;;;;;0.20;0.20;;;;;;;14.95;43.83;102959.94;5091639;28;20027;-76
2022/04/30 08:58:04;;;;;;;0.10;0.10;;;;;;;14.92;43.72;102961.75;5086207;28;20420;-78
2022/04/30 09:00:30;;;;;;;0.30;0.30;;;;;;;14.75;44.10;102960.03;5090726;28;20036;-78
2022/04/30 09:02:59;;;;;;;0.08;0.08;;;;;;;14.56;43.89;102968.06;5092599;28;20028;-76
2022/04/30 09:05:35;;;;;;;0.00;0.00;;;;;;;14.57;43.88;102959.16;5093082;28;20032;-77
2022/04/30 09:08:02;;;;;;;0.10;0.10;;;;;;;14.51;44.51;102961.84;5086233;28;20020;-76
2022/04/30 09:10:30;;;;;;;0.00;0.00;;;;;;;14.58;44.92;102957.41;5095096;28;20397;-77
2022/04/30 09:15:48;;;;;;;0.00;0.00;;;;;;;14.67;44.51;102951.19;5070122;28;20418;-79
2022/04/30 09:18:15;;;;;;;0.00;0.00;;;;;;;14.66;44.51;102950.28;5063162;28;20033;-77
2022/04/30 09:20:44;;;;;;;0.00;0.00;;;;;;;14.76;44.66;102951.13;5052226;28;20040;-79
2022/04/30 09:23:11;;;;;;;0.73;0.73;;;;;;;14.85;44.07;102940.44;5051095;28;20512;-78
2022/04/30 09:25:48;;;;;;;0.52;0.52;;;;;;;14.96;43.10;102945.69;5051028;28;20059;-78
2022/04/30 09:28:23;;;;;;;0.10;0.10;;;;;;;15.19;43.33;102942.94;5051697;28;20079;-78
2022/04/30 09:30:50;;;;;;;0.00;0.00;;;;;;;15.28;43.36;102954.47;5057938;28;20029;-78
2022/04/30 09:33:20;;;;;;;0.00;0.00;;;;;;;15.35;42.29;102938.38;5059012;28;20021;-78
2022/04/30 09:38:39;;;;;;;0.03;0.03;;;;;;;15.29;42.90;102950.88;5051174;28;20475;-79
2022/04/30 09:41:08;;;;;;;0.10;0.10;;;;;;;15.12;43.58;102943.84;5049843;28;20022;-79
2022/04/30 09:43:34;;;;;;;0.00;0.00;;;;;;;14.96;43.98;102936.81;5051398;28;20032;-79
2022/04/30 09:46:04;;;;;;;0.10;0.10;;;;;;;14.92;44.23;102941.28;5050749;28;20035;-79
2022/04/30 09:54:03;;;;;;;0.00;0.00;;;;;;;14.92;44.74;102932.41;5054819;28;20025;-79
2022/04/30 09:56:35;;;;;;;0.00;0.00;;;;;;;14.96;45.01;102936.81;5055090;28;20068;-79
2022/04/30 09:59:07;;;;;;;0.00;0.00;;;;;;;14.85;45.82;102937.78;5050111;28;20021;-79
2022/04/30 10:01:35;;;;;;;0.10;0.10;;;;;;;14.81;45.70;102935.97;5053258;28;20078;-79
2022/04/30 10:04:07;;;;;;;0.00;0.00;;;;;;;14.88;46.07;102932.41;5056680;28;20025;-79
2022/04/30 10:06:35;;;;;;;0.10;0.10;;;;;;;14.96;45.74;102931.47;5052449;28;20036;-80
2022/04/30 10:09:06;;;;;;;0.65;0.50;;;;;;;14.99;44.99;102924.34;5053990;28;20029;-79
2022/04/30 10:11:55;;;;;;;0.52;0.52;;;;;;;15.14;44.55;102919.81;5055940;28;20030;-79
2022/04/30 10:15:01;;;;;;;0.10;0.10;;;;;;;15.39;44.57;102920.56;5057525;28;20087;-79
2022/04/30 10:17:32;;;;;;;0.10;0.10;;;;;;;15.44;43.46;102913.38;5053311;28;20080;-79
2022/04/30 10:20:19;;;;;;;0.50;0.50;;;;;;;15.63;43.91;102905.22;5055785;28;20044;-79
2022/04/30 10:22:53;;;;;;;0.45;0.45;;;;;;;15.69;41.98;102903.38;5059492;28;20079;-80
2022/04/30 10:25:42;;;;;;;0.00;0.00;;;;;;;15.92;41.38;102905.00;5047659;28;20037;-80
2022/04/30 10:30:59;;;;;;;0.00;0.00;;;;;;;16.24;41.24;102892.22;5098262;27;20411;-81
2022/04/30 10:33:26;;;;;;;0.10;0.10;;;;;;;16.36;40.43;102901.88;5111224;28;20042;-82
2022/04/30 10:36:11;;;;;;;0.10;0.10;;;;;;;16.66;39.60;102888.13;5106858;28;20028;-79
2022/04/30 10:38:38;;;;;;;0.00;0.00;;;;;;;16.77;39.65;102895.13;5098355;28;20051;-82
2022/04/30 10:41:08;;;;;;;0.20;0.20;;;;;;;16.78;38.34;102896.91;5110367;28;20023;-79
2022/04/30 10:43:39;;;;;;;0.00;0.00;;;;;;;16.98;39.24;102888.63;5110616;28;20118;-81
2022/04/30 10:48:52;;;;;;;0.00;0.00;;;;;;;17.12;39.07;102872.34;5111765;27;20379;-81
2022/04/30 10:51:40;;;;;;;0.10;0.10;;;;;;;17.29;39.46;102880.13;5108907;28;20046;-81
2022/04/30 10:54:13;;;;;;;0.20;0.20;;;;;;;17.37;39.46;102875.56;5105813;28;20020;-81
2022/04/30 10:56:40;;;;;;;0.05;0.05;;;;;;;17.22;37.96;102879.34;5110259;28;20024;-81
2022/04/30 10:59:07;;;;;;;0.10;0.10;;;;;;;17.01;39.83;102880.56;5110459;28;20103;-79
2022/04/30 11:01:34;;;;;;;0.32;0.32;;;;;;;16.64;40.23;102883.69;5110730;28;20020;-81
2022/04/30 11:04:01;;;;;;;0.55;0.55;;;;;;;16.36;40.60;102884.03;5111726;28;20102;-80
2022/04/30 11:06:30;;;;;;;0.00;0.00;;;;;;;15.97;41.21;102875.53;5110853;28;20028;-81
2022/04/30 11:09:11;;;;;;;0.10;0.10;;;;;;;15.92;41.67;102877.38;5104894;28;20028;-81
2022/04/30 11:11:37;;;;;;;0.00;0.00;;;;;;;15.69;42.83;102886.47;5104530;28;20031;-80
2022/04/30 11:16:45;;;;;;;0.00;0.00;;;;;;;15.41;44.04;102881.34;5115271;27;20327;-78
2022/04/30 11:19:15;;;;;;;0.10;0.10;;;;;;;15.32;44.04;102889.44;5113845;28;20034;-77
2022/04/30 11:21:44;;;;;;;0.08;0.08;;;;;;;15.30;44.19;102881.44;5113708;28;20032;-76
2022/04/30 11:24:11;;;;;;;0.25;0.25;;;;;;;15.22;44.01;102885.06;5113175;28;20030;-78
2022/04/30 11:26:39;;;;;;;0.00;0.00;;;;;;;15.16;43.84;102876.16;5116671;28;20035;-78
2022/04/30 11:29:14;;;;;;;0.10;0.10;;;;;;;15.28;43.61;102879.69;5116295;28;20024;-77
2022/04/30 11:31:43;;;;;;;2.55;1.48;;;;;;;15.22;44.21;102875.25;5111637;28;20518;-76
2022/04/30 11:34:17;;;;;;;0.00;0.00;;;;;;;15.29;44.29;102878.75;5101630;28;20621;-77
2022/04/30 11:36:47;;;;;;;0.10;0.10;;;;;;;15.41;43.08;102881.34;5109282;28;20092;-77
2022/04/30 11:39:14;;;;;;;0.05;0.05;;;;;;;15.31;42.98;102876.97;5112684;28;20054;-78
2022/04/30 11:44:23;;;;;;;0.00;0.00;;;;;;;15.75;42.57;102870.38;5109676;27;1206100;-78
2022/04/30 11:46:52;;;;;;;0.00;0.00;;;;;;;15.92;42.81;102854.19;5137869;27;20036;-79
2022/04/30 11:49:20;;;;;;;0.15;0.15;;;;;;;16.10;42.10;102861.16;5128707;28;20091;-78
2022/04/30 11:51:48;;;;;;;0.00;0.00;;;;;;;16.31;42.09;102860.03;5118620;27;20647;-79
2022/04/30 11:54:17;;;;;;;0.00;0.00;;;;;;;16.48;41.52;102854.44;5131706;28;20225;-77
2022/04/30 11:56:44;;;;;;;0.00;0.00;;;;;;;16.52;40.53;102851.75;5131779;28;20044;-77
2022/04/30 11:59:11;;;;;;;0.00;0.00;;;;;;;16.59;40.90;102853.44;5126889;28;20035;-78
2022/04/30 12:01:39;;;;;;;0.10;0.10;;;;;;;16.70;40.35;102856.84;5139432;27;20066;-77
2022/04/30 12:04:09;;;;;;;0.98;0.20;;;;;;;16.70;39.88;102850.59;5140093;27;20032;-77
2022/04/30 12:06:37;;;;;;;0.00;0.00;;;;;;;16.80;39.70;102847.78;5130505;27;20036;-77
2022/04/30 12:09:20;;;;;;;0.00;0.00;;;;;;;16.94;39.70;102852.09;5126371;28;20501;-77
2022/04/30 12:11:50;;;;;;;0.10;0.10;;;;;;;16.87;39.82;102850.38;5126540;28;20020;-78
2022/04/30 12:14:17;;;;;;;0.00;0.00;;;;;;;16.88;39.62;102845.00;5138285;28;20027;-78